createdAt,value
2023-08-14T00:00:32.155Z,14.8
2023-08-14T00:01:39.386Z,14.8
2023-08-14T00:02:45.910Z,14.8
2023-08-14T00:03:53.230Z,14.8
2023-08-14T00:05:00.230Z,14.8
2023-08-14T00:06:07.213Z,14.8
2023-08-14T00:07:14.309Z,14.8
2023-08-14T00:08:20.970Z,14.8
2023-08-14T00:09:28.006Z,14.8
2023-08-14T00:10:35.250Z,14.7
2023-08-14T00:11:42.219Z,14.8
2023-08-14T00:12:49.372Z,14.7
2023-08-14T00:13:56.045Z,14.7
2023-08-14T00:15:02.973Z,14.7
2023-08-14T00:16:10.286Z,14.7
2023-08-14T00:17:17.308Z,14.7
2023-08-14T00:18:24.399Z,14.7
2023-08-14T00:19:30.947Z,14.7
2023-08-14T00:20:38.054Z,14.7
2023-08-14T00:21:45.163Z,14.7
2023-08-14T00:22:52.191Z,14.7
2023-08-14T00:23:59.353Z,14.7
2023-08-14T00:25:05.934Z,14.7
2023-08-14T00:26:13.007Z,14.7
2023-08-14T00:27:20.129Z,14.7
2023-08-14T00:28:27.241Z,14.7
2023-08-14T00:29:34.321Z,14.7
2023-08-14T00:30:40.941Z,14.7
2023-08-14T00:31:48.060Z,14.7
2023-08-14T00:32:55.200Z,14.7
2023-08-14T00:34:02.297Z,14.7
2023-08-14T00:35:08.871Z,14.6
2023-08-14T00:36:15.940Z,14.6
2023-08-14T00:37:23.045Z,14.6
2023-08-14T00:38:30.156Z,14.6
2023-08-14T00:39:37.264Z,14.6
2023-08-14T00:40:43.829Z,14.6
2023-08-14T00:41:50.903Z,14.6
2023-08-14T00:44:05.165Z,14.6
2023-08-14T00:45:12.242Z,14.6
2023-08-14T00:46:18.874Z,14.6
2023-08-14T00:47:26.031Z,14.6
2023-08-14T00:48:33.063Z,14.6
2023-08-14T00:49:40.267Z,14.6
2023-08-14T00:50:47.272Z,14.6
2023-08-14T00:51:53.846Z,14.6
2023-08-14T00:53:00.993Z,14.6
2023-08-14T00:54:08.084Z,14.6
2023-08-14T00:55:15.219Z,14.6
2023-08-14T00:56:22.247Z,14.6
2023-08-14T00:57:28.867Z,14.6
2023-08-14T00:58:35.983Z,14.6
2023-08-14T00:59:43.044Z,14.6
2023-08-14T01:00:50.234Z,14.6
2023-08-14T01:03:03.920Z,14.6
2023-08-14T01:04:10.961Z,14.6
2023-08-14T01:05:18.115Z,14.6
2023-08-14T01:06:25.173Z,14.6
2023-08-14T01:07:32.252Z,14.6
2023-08-14T01:08:38.882Z,14.6
2023-08-14T01:09:46.005Z,14.6
2023-08-14T01:10:53.042Z,14.6
2023-08-14T01:12:00.224Z,14.6
2023-08-14T01:13:07.323Z,14.6
2023-08-14T01:14:13.888Z,14.6
2023-08-14T01:15:20.946Z,14.6
2023-08-14T01:16:28.130Z,14.6
2023-08-14T01:17:35.212Z,14.6
2023-08-14T01:18:42.276Z,14.6
2023-08-14T01:19:48.970Z,14.6
2023-08-14T01:20:56.010Z,14.6
2023-08-14T01:22:03.197Z,14.6
2023-08-14T01:23:10.193Z,14.6
2023-08-14T01:24:17.355Z,14.6
2023-08-14T01:25:23.862Z,14.6
2023-08-14T01:26:31.001Z,14.6
2023-08-14T01:27:38.146Z,14.6
2023-08-14T01:28:45.238Z,14.5
2023-08-14T01:29:52.335Z,14.5
2023-08-14T01:30:58.999Z,14.5
2023-08-14T01:32:06.034Z,14.5
2023-08-14T01:33:13.119Z,14.5
2023-08-14T01:34:20.262Z,14.4
2023-08-14T01:35:26.819Z,14.4
2023-08-14T01:36:33.918Z,14.4
2023-08-14T01:37:40.995Z,14.4
2023-08-14T01:38:48.104Z,14.3
2023-08-14T01:39:55.212Z,14.3
2023-08-14T01:41:02.304Z,14.3
2023-08-14T01:42:08.931Z,14.2
2023-08-14T01:43:16.042Z,14.2
2023-08-14T01:44:23.134Z,14.2
2023-08-14T01:45:30.266Z,14.2
2023-08-14T01:47:43.927Z,14.1
2023-08-14T01:48:51.068Z,14.1
2023-08-14T01:49:58.197Z,14.1
2023-08-14T01:51:05.276Z,14
2023-08-14T01:52:11.872Z,14
2023-08-14T01:53:18.915Z,14
2023-08-14T01:54:26.094Z,14
2023-08-14T01:55:33.140Z,14
2023-08-14T01:56:40.268Z,14
2023-08-14T01:57:46.848Z,14
2023-08-14T01:58:53.990Z,14
2023-08-14T02:00:01.084Z,13.9
2023-08-14T02:01:08.204Z,13.9
2023-08-14T02:02:15.599Z,13.9
2023-08-14T02:03:21.928Z,13.9
2023-08-14T02:04:28.954Z,13.9
2023-08-14T02:05:36.610Z,13.9
2023-08-14T02:06:43.118Z,13.9
2023-08-14T02:07:50.270Z,13.9
2023-08-14T02:08:56.830Z,13.9
2023-08-14T02:10:03.963Z,13.9
2023-08-14T02:11:11.046Z,13.9
2023-08-14T02:12:18.506Z,13.9
2023-08-14T02:13:25.251Z,13.9
2023-08-14T02:14:31.851Z,13.9
2023-08-14T02:15:39.031Z,13.9
2023-08-14T02:16:46.096Z,13.9
2023-08-14T02:17:53.234Z,13.9
2023-08-14T02:19:00.306Z,13.9
2023-08-14T02:20:06.948Z,13.9
2023-08-14T02:21:13.994Z,13.9
2023-08-14T02:22:21.062Z,13.9
2023-08-14T02:23:28.185Z,13.9
2023-08-14T02:24:35.384Z,13.9
2023-08-14T02:25:41.831Z,13.9
2023-08-14T02:26:49.005Z,13.9
2023-08-14T02:27:56.117Z,13.9
2023-08-14T02:29:03.191Z,13.9
2023-08-14T02:31:16.961Z,13.9
2023-08-14T02:32:23.993Z,13.9
2023-08-14T02:33:31.092Z,13.8
2023-08-14T02:34:38.181Z,13.8
2023-08-14T02:35:45.324Z,13.8
2023-08-14T02:36:51.865Z,13.9
2023-08-14T02:37:59.039Z,13.8
2023-08-14T02:39:06.088Z,13.9
2023-08-14T02:40:13.203Z,13.9
2023-08-14T02:41:20.290Z,13.9
2023-08-14T02:42:26.896Z,13.9
2023-08-14T02:43:34.065Z,13.9
2023-08-14T02:44:41.118Z,13.9
2023-08-14T02:45:48.262Z,13.9
2023-08-14T02:46:54.781Z,13.9
2023-08-14T02:48:01.894Z,13.9
2023-08-14T02:49:09.054Z,13.9
2023-08-14T02:51:23.312Z,13.9
2023-08-14T02:52:29.845Z,13.9
2023-08-14T02:53:36.919Z,13.9
2023-08-14T02:54:44.055Z,13.9
2023-08-14T02:55:51.093Z,13.9
2023-08-14T02:56:58.301Z,13.9
2023-08-14T02:58:04.860Z,13.9
2023-08-14T02:59:11.908Z,13.9
2023-08-14T03:00:19.041Z,13.9
2023-08-14T03:01:26.223Z,13.9
2023-08-14T03:02:33.438Z,13.9
2023-08-14T03:03:39.852Z,13.9
2023-08-14T03:04:46.908Z,13.9
2023-08-14T03:05:53.995Z,13.9
2023-08-14T03:07:01.137Z,13.9
2023-08-14T03:08:08.253Z,13.9
2023-08-14T03:09:15.354Z,14
2023-08-14T03:10:21.926Z,14
2023-08-14T03:11:29.062Z,13.9
2023-08-14T03:12:36.121Z,13.9
2023-08-14T03:13:43.247Z,13.9
2023-08-14T03:14:49.869Z,13.9
2023-08-14T03:15:56.970Z,13.9
2023-08-14T03:17:04.041Z,13.9
2023-08-14T03:18:11.113Z,13.9
2023-08-14T03:19:18.270Z,13.9
2023-08-14T03:20:24.854Z,13.9
2023-08-14T03:21:31.946Z,13.9
2023-08-14T03:22:39.056Z,13.9
2023-08-14T03:23:46.191Z,13.9
2023-08-14T03:24:53.310Z,13.8
2023-08-14T03:25:59.876Z,13.8
2023-08-14T03:27:06.962Z,13.8
2023-08-14T03:28:14.043Z,13.8
2023-08-14T03:29:21.138Z,13.8
2023-08-14T03:30:28.264Z,13.8
2023-08-14T03:31:34.839Z,13.8
2023-08-14T03:32:41.978Z,13.8
2023-08-14T03:33:50.154Z,13.8
2023-08-14T03:34:56.216Z,13.8
2023-08-14T03:36:03.256Z,13.8
2023-08-14T03:37:12.538Z,13.8
2023-08-14T03:38:16.963Z,13.8
2023-08-14T03:39:24.077Z,13.8
2023-08-14T03:40:31.164Z,13.8
2023-08-14T03:41:38.323Z,13.8
2023-08-14T03:42:44.901Z,13.8
2023-08-14T03:43:51.970Z,13.8
2023-08-14T03:44:59.120Z,13.8
2023-08-14T03:46:06.293Z,13.8
2023-08-14T03:47:12.759Z,13.8
2023-08-14T03:48:19.939Z,13.8
2023-08-14T03:49:26.985Z,13.8
2023-08-14T03:50:34.258Z,13.8
2023-08-14T03:51:41.188Z,13.8
2023-08-14T03:52:47.805Z,13.8
2023-08-14T03:55:01.983Z,13.8
2023-08-14T03:56:09.234Z,13.8
2023-08-14T03:57:16.216Z,13.8
2023-08-14T03:59:29.911Z,13.7
2023-08-14T04:00:37.020Z,13.7
2023-08-14T04:01:44.279Z,13.7
2023-08-14T04:02:51.276Z,13.7
2023-08-14T04:03:57.941Z,13.7
2023-08-14T04:05:04.883Z,13.7
2023-08-14T04:06:12.014Z,13.7
2023-08-14T04:07:19.095Z,13.7
2023-08-14T04:08:26.246Z,13.7
2023-08-14T04:09:32.777Z,13.7
2023-08-14T04:10:39.964Z,13.7
2023-08-14T04:11:47.004Z,13.7
2023-08-14T04:12:56.370Z,13.6
2023-08-14T04:14:01.230Z,13.6
2023-08-14T04:15:07.824Z,13.6
2023-08-14T04:16:15.009Z,13.6
2023-08-14T04:17:22.014Z,13.6
2023-08-14T04:18:29.251Z,13.6
2023-08-14T04:19:36.259Z,13.6
2023-08-14T04:20:42.843Z,13.6
2023-08-14T04:21:49.949Z,13.6
2023-08-14T04:22:57.054Z,13.6
2023-08-14T04:24:04.152Z,13.6
2023-08-14T04:25:11.261Z,13.5
2023-08-14T04:26:17.849Z,13.5
2023-08-14T04:27:24.965Z,13.5
2023-08-14T04:28:32.034Z,13.5
2023-08-14T04:29:39.156Z,13.5
2023-08-14T04:30:46.248Z,13.5
2023-08-14T04:31:52.876Z,13.5
2023-08-14T04:32:59.986Z,13.5
2023-08-14T04:34:07.049Z,13.5
2023-08-14T04:35:14.200Z,13.5
2023-08-14T04:36:21.269Z,13.5
2023-08-14T04:37:27.830Z,13.5
2023-08-14T04:38:35.002Z,13.5
2023-08-14T04:39:42.072Z,13.5
2023-08-14T04:40:49.151Z,13.5
2023-08-14T04:41:56.323Z,13.5
2023-08-14T04:43:02.842Z,13.5
2023-08-14T04:44:09.971Z,13.5
2023-08-14T04:45:17.123Z,13.5
2023-08-14T04:46:24.209Z,13.5
2023-08-14T04:47:31.304Z,13.5
2023-08-14T05:08:44.185Z,13.5
2023-08-14T05:09:50.779Z,13.5
2023-08-14T05:10:57.975Z,13.5
2023-08-14T05:12:05.037Z,13.5
2023-08-14T05:13:12.070Z,13.5
2023-08-14T05:14:19.222Z,13.5
2023-08-14T05:16:33.504Z,13.5
2023-08-14T05:17:40.077Z,13.5
2023-08-14T05:18:47.112Z,13.5
2023-08-14T05:19:54.202Z,13.5
2023-08-14T05:21:00.802Z,13.5
2023-08-14T05:22:07.959Z,13.5
2023-08-14T05:24:22.114Z,13.5
2023-08-14T05:25:29.219Z,13.5
2023-08-14T05:28:50.073Z,13.5
2023-08-14T05:32:10.772Z,13.5
2023-08-14T05:33:17.918Z,13.5
2023-08-14T05:34:25.053Z,13.5
2023-08-14T05:35:32.140Z,13.5
2023-08-14T05:36:39.245Z,13.5
2023-08-14T05:37:45.855Z,13.5
2023-08-14T05:38:52.901Z,13.5
2023-08-14T05:40:00.198Z,13.6
2023-08-14T05:41:07.143Z,13.6
2023-08-14T05:42:14.223Z,13.6
2023-08-14T05:43:20.833Z,13.6
2023-08-14T05:44:27.957Z,13.6
2023-08-14T05:45:35.177Z,13.7
2023-08-14T05:46:42.149Z,13.7
2023-08-14T05:47:49.266Z,13.7
2023-08-14T05:48:55.890Z,13.7
2023-08-14T05:50:02.977Z,13.8
2023-08-14T05:51:10.069Z,13.8
2023-08-14T05:52:17.448Z,13.8
2023-08-14T05:53:24.251Z,13.8
2023-08-14T05:54:30.808Z,13.8
2023-08-14T05:55:37.997Z,13.8
2023-08-14T05:56:45.105Z,13.8
2023-08-14T05:57:52.159Z,13.8
2023-08-14T05:58:59.365Z,13.9
2023-08-14T06:00:05.911Z,13.9
2023-08-14T06:01:12.962Z,13.9
2023-08-14T06:02:20.376Z,13.9
2023-08-14T06:03:41.912Z,13.9
2023-08-14T06:04:33.883Z,14
2023-08-14T06:05:40.872Z,14
2023-08-14T06:06:47.984Z,14.1
2023-08-14T06:07:55.101Z,14.1
2023-08-14T06:09:02.164Z,14.1
2023-08-14T06:10:08.775Z,14.1
2023-08-14T06:11:15.907Z,14.1
2023-08-14T06:12:23.428Z,14.1
2023-08-14T06:13:30.086Z,14.2
2023-08-14T06:14:40.305Z,14.2
2023-08-14T06:15:43.773Z,14.2
2023-08-14T06:16:50.973Z,14.2
2023-08-14T06:17:58.054Z,14.3
2023-08-14T06:19:05.148Z,14.3
2023-08-14T06:20:12.246Z,14.3
2023-08-14T06:21:18.790Z,14.3
2023-08-14T06:22:25.856Z,14.4
2023-08-14T06:23:32.987Z,14.4
2023-08-14T06:24:40.092Z,14.4
2023-08-14T06:25:47.494Z,14.4
2023-08-14T06:26:53.818Z,14.4
2023-08-14T06:28:01.007Z,14.5
2023-08-14T06:29:07.995Z,14.5
2023-08-14T06:30:15.131Z,14.5
2023-08-14T06:31:22.208Z,14.5
2023-08-14T06:32:28.821Z,14.6
2023-08-14T06:33:38.592Z,14.6
2023-08-14T06:34:43.008Z,14.6
2023-08-14T06:35:50.088Z,14.6
2023-08-14T06:36:57.246Z,14.6
2023-08-14T06:38:03.789Z,14.7
2023-08-14T06:39:10.868Z,14.7
2023-08-14T06:40:18.087Z,14.7
2023-08-14T06:41:25.182Z,14.6
2023-08-14T06:42:32.233Z,14.7
2023-08-14T06:43:38.832Z,14.7
2023-08-14T06:44:45.941Z,14.8
2023-08-14T06:45:53.002Z,14.8
2023-08-14T06:47:00.137Z,14.8
2023-08-14T06:48:07.259Z,14.8
2023-08-14T06:49:13.796Z,14.9
2023-08-14T06:50:20.978Z,15
2023-08-14T06:51:28.043Z,15
2023-08-14T06:52:35.170Z,15.1
2023-08-14T06:53:42.257Z,15.1
2023-08-14T06:55:55.973Z,15.2
2023-08-14T06:57:03.477Z,15.3
2023-08-14T06:58:10.178Z,15.3
2023-08-14T06:59:17.237Z,15.3
2023-08-14T07:00:23.812Z,15.4
2023-08-14T07:01:30.894Z,15.4
2023-08-14T07:02:38.138Z,15.4
2023-08-14T07:03:45.287Z,15.4
2023-08-14T07:05:58.874Z,15.4
2023-08-14T07:07:05.965Z,15.4
2023-08-14T07:08:13.045Z,15.4
2023-08-14T07:09:20.144Z,15.4
2023-08-14T07:10:27.293Z,15.4
2023-08-14T07:11:33.827Z,15.4
2023-08-14T07:12:41.010Z,15.4
2023-08-14T07:13:50.888Z,15.4
2023-08-14T07:14:55.204Z,15.4
2023-08-14T07:16:01.885Z,15.4
2023-08-14T07:17:08.855Z,15.5
2023-08-14T07:18:15.951Z,15.5
2023-08-14T07:19:23.021Z,15.5
2023-08-14T07:20:30.262Z,15.5
2023-08-14T07:21:36.752Z,15.5
2023-08-14T07:22:43.842Z,15.6
2023-08-14T07:23:51.469Z,15.6
2023-08-14T07:24:58.104Z,15.7
2023-08-14T07:26:05.280Z,15.7
2023-08-14T07:27:11.837Z,15.6
2023-08-14T07:28:18.908Z,15.7
2023-08-14T07:29:25.959Z,15.7
2023-08-14T07:30:33.131Z,15.8
2023-08-14T07:31:40.208Z,15.8
2023-08-14T07:32:46.832Z,15.8
2023-08-14T07:33:53.872Z,15.9
2023-08-14T07:35:00.952Z,15.9
2023-08-14T07:36:08.097Z,16
2023-08-14T07:37:15.202Z,16
2023-08-14T07:38:21.776Z,16
2023-08-14T07:39:28.854Z,16
2023-08-14T07:40:36.007Z,16.1
2023-08-14T07:41:43.096Z,16.1
2023-08-14T07:42:50.242Z,16.1
2023-08-14T07:43:56.817Z,16.2
2023-08-14T07:45:03.899Z,16.2
2023-08-14T07:46:11.045Z,16.3
2023-08-14T07:47:18.101Z,16.3
2023-08-14T07:48:25.194Z,16.3
2023-08-14T07:49:31.799Z,16.4
2023-08-14T07:50:39.059Z,16.5
2023-08-14T07:51:46.084Z,16.5
2023-08-14T07:52:53.117Z,16.6
2023-08-14T07:54:00.224Z,16.6
2023-08-14T07:55:06.842Z,16.7
2023-08-14T07:56:14.005Z,16.7
2023-08-14T07:57:21.008Z,16.8
2023-08-14T07:58:28.125Z,16.8
2023-08-14T07:59:35.209Z,16.9
2023-08-14T08:00:41.829Z,17
2023-08-14T08:01:48.994Z,17.1
2023-08-14T08:02:56.039Z,17.1
2023-08-14T08:04:03.148Z,17.2
2023-08-14T08:05:10.245Z,17.3
2023-08-14T08:06:16.830Z,17.5
2023-08-14T08:07:25.703Z,17.6
2023-08-14T08:09:38.163Z,18
2023-08-14T08:10:45.225Z,18.1
2023-08-14T08:11:51.818Z,18.2
2023-08-14T08:12:58.964Z,18.2
2023-08-14T08:14:06.042Z,18.3
2023-08-14T08:15:13.153Z,18.4
2023-08-14T08:16:20.330Z,18.3
2023-08-14T08:17:26.902Z,18.4
2023-08-14T08:18:33.941Z,18.4
2023-08-14T08:19:41.085Z,18.3
2023-08-14T08:20:48.179Z,18.3
2023-08-14T08:21:55.269Z,18.3
2023-08-14T08:24:08.995Z,18.4
2023-08-14T08:25:16.036Z,18.4
2023-08-14T08:26:23.129Z,18.4
2023-08-14T08:27:30.282Z,18.4
2023-08-14T08:28:36.849Z,18.3
2023-08-14T08:29:43.939Z,18.3
2023-08-14T08:30:51.056Z,18.3
2023-08-14T08:31:58.255Z,18.3
2023-08-14T08:33:04.829Z,18.2
2023-08-14T08:34:11.850Z,18.3
2023-08-14T08:35:18.957Z,18.2
2023-08-14T08:36:26.141Z,18.2
2023-08-14T08:37:33.202Z,18.2
2023-08-14T08:38:42.428Z,18.1
2023-08-14T08:39:49.486Z,18.1
2023-08-14T08:40:53.938Z,18.1
2023-08-14T08:42:01.066Z,18.1
2023-08-14T08:43:08.200Z,18.1
2023-08-14T08:44:14.793Z,18.1
2023-08-14T08:45:21.853Z,18.1
2023-08-14T08:46:28.964Z,18
2023-08-14T08:47:36.337Z,17.9
2023-08-14T08:48:43.235Z,17.8
2023-08-14T08:49:52.889Z,17.8
2023-08-14T08:50:57.934Z,17.8
2023-08-14T08:52:03.971Z,17.7
2023-08-14T08:53:11.062Z,17.7
2023-08-14T08:54:18.206Z,17.6
2023-08-14T08:55:24.794Z,17.6
2023-08-14T08:56:31.853Z,17.5
2023-08-14T08:57:39.016Z,17.5
2023-08-14T08:58:46.086Z,17.5
2023-08-14T08:59:53.872Z,17.5
2023-08-14T09:00:59.772Z,17.5
2023-08-14T09:02:06.887Z,17.5
2023-08-14T09:03:14.357Z,17.5
2023-08-14T09:04:21.216Z,17.5
2023-08-14T09:05:28.192Z,17.5
2023-08-14T09:06:34.820Z,17.5
2023-08-14T09:07:41.867Z,17.5
2023-08-14T09:08:48.999Z,17.5
2023-08-14T09:09:56.104Z,17.5
2023-08-14T09:11:03.204Z,17.5
2023-08-14T09:12:09.844Z,17.5
2023-08-14T09:13:22.824Z,17.6
2023-08-14T09:14:24.013Z,17.7
2023-08-14T09:15:33.166Z,17.9
2023-08-14T09:16:38.293Z,18.1
2023-08-14T09:17:44.860Z,18.2
2023-08-14T09:18:51.933Z,18.2
2023-08-14T09:20:00.280Z,18.4
2023-08-14T09:21:06.144Z,18.5
2023-08-14T09:22:13.204Z,18.7
2023-08-14T09:23:19.817Z,18.9
2023-08-14T09:24:26.940Z,19
2023-08-14T09:25:34.032Z,19.2
2023-08-14T09:26:41.110Z,19.3
2023-08-14T09:27:47.713Z,19.4
2023-08-14T09:28:54.841Z,19.5
2023-08-14T09:30:01.937Z,19.6
2023-08-14T09:31:09.616Z,19.6
2023-08-14T09:32:16.515Z,19.8
2023-08-14T09:33:22.746Z,19.8
2023-08-14T09:34:29.868Z,19.8
2023-08-14T09:35:36.979Z,19.7
2023-08-14T09:37:51.179Z,19.6
2023-08-14T09:38:58.227Z,19.5
2023-08-14T09:40:04.841Z,19.4
2023-08-14T09:41:11.898Z,19.4
2023-08-14T09:42:19.282Z,19.3
2023-08-14T09:43:27.223Z,19.3
2023-08-14T09:44:32.769Z,19.3
2023-08-14T09:45:39.861Z,19.5
2023-08-14T09:46:47.001Z,19.6
2023-08-14T09:47:54.305Z,19.8
2023-08-14T09:49:01.118Z,19.9
2023-08-14T09:50:07.851Z,20
2023-08-14T09:51:15.024Z,20.1
2023-08-14T09:52:21.928Z,20.1
2023-08-14T09:53:29.096Z,20.1
2023-08-14T09:54:36.286Z,20.2
2023-08-14T09:55:42.760Z,20.2
2023-08-14T09:56:49.884Z,20.3
2023-08-14T09:57:56.975Z,20.4
2023-08-14T09:59:04.040Z,20.4
2023-08-14T10:00:11.190Z,20.3
2023-08-14T10:01:17.851Z,20.3
2023-08-14T10:02:25.035Z,20.2
2023-08-14T10:03:31.951Z,20.1
2023-08-14T10:04:39.088Z,19.9
2023-08-14T10:05:46.204Z,19.8
2023-08-14T10:06:52.725Z,19.7
2023-08-14T10:07:59.987Z,19.6
2023-08-14T10:09:06.978Z,19.5
2023-08-14T10:10:14.052Z,19.5
2023-08-14T10:11:21.187Z,19.3
2023-08-14T10:12:27.764Z,19.3
2023-08-14T10:13:34.970Z,19.2
2023-08-14T10:14:41.979Z,19.2
2023-08-14T10:16:55.631Z,19.1
2023-08-14T10:18:02.873Z,19.1
2023-08-14T10:19:09.902Z,19
2023-08-14T10:20:17.031Z,18.9
2023-08-14T10:21:24.089Z,19
2023-08-14T10:22:31.186Z,18.9
2023-08-14T10:23:37.826Z,18.9
2023-08-14T10:24:44.923Z,18.8
2023-08-14T10:25:52.537Z,18.8
2023-08-14T10:26:59.090Z,18.7
2023-08-14T10:28:06.793Z,18.6
2023-08-14T10:29:12.763Z,18.7
2023-08-14T10:30:19.914Z,18.6
2023-08-14T10:31:27.106Z,18.6
2023-08-14T10:32:34.530Z,18.6
2023-08-14T10:33:41.193Z,18.6
2023-08-14T10:34:48.316Z,18.6
2023-08-14T10:35:54.923Z,18.5
2023-08-14T10:37:02.020Z,18.5
2023-08-14T10:38:11.162Z,18.6
2023-08-14T10:40:22.798Z,18.5
2023-08-14T10:41:29.934Z,18.5
2023-08-14T10:42:37.047Z,18.5
2023-08-14T10:43:44.077Z,18.5
2023-08-14T10:44:50.673Z,18.5
2023-08-14T10:45:57.912Z,18.5
2023-08-14T10:47:04.931Z,18.5
2023-08-14T10:48:13.069Z,18.5
2023-08-14T10:49:19.138Z,18.4
2023-08-14T10:50:26.353Z,18.4
2023-08-14T10:51:32.834Z,18.4
2023-08-14T10:52:39.954Z,18.4
2023-08-14T10:53:50.118Z,18.4
2023-08-14T10:54:54.138Z,18.4
2023-08-14T10:56:00.783Z,18.4
2023-08-14T10:57:07.842Z,18.4
2023-08-14T10:58:14.910Z,18.4
2023-08-14T10:59:23.496Z,18.4
2023-08-14T11:00:29.139Z,18.4
2023-08-14T11:01:35.771Z,18.4
2023-08-14T11:02:42.881Z,18.4
2023-08-14T11:03:50.209Z,18.4
2023-08-14T11:04:57.053Z,18.3
2023-08-14T11:06:03.694Z,18.3
2023-08-14T11:07:10.714Z,18.3
2023-08-14T11:08:17.892Z,18.4
2023-08-14T11:09:24.970Z,18.3
2023-08-14T11:10:32.050Z,18.4
2023-08-14T11:11:39.180Z,18.4
2023-08-14T11:12:45.753Z,18.4
2023-08-14T11:13:52.843Z,18.6
2023-08-14T11:14:59.979Z,18.7
2023-08-14T11:16:07.510Z,18.8
2023-08-14T11:17:14.157Z,18.9
2023-08-14T11:18:20.788Z,19
2023-08-14T11:19:27.897Z,19.1
2023-08-14T11:20:34.977Z,19.1
2023-08-14T11:21:42.091Z,19.1
2023-08-14T11:22:49.191Z,19.1
2023-08-14T11:23:55.775Z,19.1
2023-08-14T11:25:02.881Z,19.1
2023-08-14T11:26:10.062Z,19.1
2023-08-14T11:27:17.117Z,19.2
2023-08-14T11:28:23.633Z,19.3
2023-08-14T11:29:32.693Z,19.3
2023-08-14T11:30:37.923Z,19.3
2023-08-14T11:31:49.594Z,19.4
2023-08-14T11:32:52.122Z,19.5
2023-08-14T11:33:58.685Z,19.6
2023-08-14T11:35:05.798Z,19.6
2023-08-14T11:36:12.932Z,19.6
2023-08-14T11:37:20.064Z,19.6
2023-08-14T11:38:27.122Z,19.8
2023-08-14T11:39:33.685Z,19.8
2023-08-14T11:40:40.807Z,19.9
2023-08-14T11:41:47.932Z,19.9
2023-08-14T11:42:55.035Z,20
2023-08-14T11:44:02.071Z,19.9
2023-08-14T11:45:08.747Z,19.9
2023-08-14T11:46:15.839Z,19.9
2023-08-14T11:47:22.980Z,20.1
2023-08-14T11:48:30.130Z,20.1
2023-08-14T11:49:37.148Z,20
2023-08-14T11:50:43.721Z,20
2023-08-14T11:51:50.830Z,20
2023-08-14T11:52:57.921Z,20
2023-08-14T11:54:05.043Z,20.1
2023-08-14T11:55:12.136Z,20
2023-08-14T11:56:19.755Z,20
2023-08-14T11:57:25.844Z,20.1
2023-08-14T11:58:32.912Z,20.1
2023-08-14T11:59:40.065Z,20.1
2023-08-14T12:00:47.193Z,20.1
2023-08-14T12:01:54.197Z,20.1
2023-08-14T12:03:00.829Z,20.1
2023-08-14T12:04:08.356Z,20.1
2023-08-14T12:05:15.040Z,20.1
2023-08-14T12:06:22.136Z,20.1
2023-08-14T12:07:28.750Z,20.1
2023-08-14T12:08:35.846Z,20.1
2023-08-14T12:09:42.932Z,20
2023-08-14T12:10:50.069Z,20
2023-08-14T12:11:57.220Z,20
2023-08-14T12:13:03.723Z,19.9
2023-08-14T12:14:10.833Z,19.9
2023-08-14T12:15:17.953Z,20
2023-08-14T12:16:27.093Z,19.9
2023-08-14T12:17:32.636Z,20.1
2023-08-14T12:18:38.825Z,20.1
2023-08-14T12:19:45.861Z,20.1
2023-08-14T12:20:52.910Z,20.1
2023-08-14T12:22:00.056Z,20.1
2023-08-14T12:24:13.763Z,20.2
2023-08-14T12:25:20.828Z,20.2
2023-08-14T12:26:27.959Z,20.2
2023-08-14T12:27:35.057Z,20.2
2023-08-14T12:28:42.140Z,20.2
2023-08-14T12:29:48.795Z,20.2
2023-08-14T12:30:55.878Z,20.3
2023-08-14T12:32:02.966Z,20.2
2023-08-14T12:33:10.169Z,20.2
2023-08-14T12:34:17.217Z,20.3
2023-08-14T12:35:23.740Z,20.3
2023-08-14T12:36:30.828Z,20.2
2023-08-14T12:37:37.974Z,20.1
2023-08-14T12:38:45.093Z,20.1
2023-08-14T12:39:51.732Z,20
2023-08-14T12:40:58.816Z,19.9
2023-08-14T12:42:06.417Z,19.9
2023-08-14T12:43:12.998Z,19.9
2023-08-14T12:44:20.186Z,19.8
2023-08-14T12:45:26.672Z,19.8
2023-08-14T12:46:33.873Z,19.8
2023-08-14T12:48:48.023Z,19.8
2023-08-14T12:49:55.114Z,20
2023-08-14T12:51:03.613Z,20
2023-08-14T12:52:10.623Z,19.9
2023-08-14T12:53:15.895Z,20
2023-08-14T12:54:23.004Z,19.9
2023-08-14T12:55:30.135Z,19.8
2023-08-14T12:56:36.697Z,19.8
2023-08-14T12:57:44.087Z,19.7
2023-08-14T12:58:50.924Z,19.8
2023-08-14T12:59:58.046Z,19.8
2023-08-14T13:01:05.947Z,19.8
2023-08-14T13:02:11.683Z,19.7
2023-08-14T13:03:18.804Z,19.7
2023-08-14T13:04:27.574Z,19.6
2023-08-14T13:06:40.141Z,19.8
2023-08-14T13:07:46.681Z,19.9
2023-08-14T13:08:53.800Z,20
2023-08-14T13:10:00.919Z,20.1
2023-08-14T13:11:08.028Z,20
2023-08-14T13:12:15.150Z,19.9
2023-08-14T13:13:21.677Z,19.8
2023-08-14T13:14:28.858Z,19.7
2023-08-14T13:15:35.939Z,19.6
2023-08-14T13:16:43.222Z,19.5
2023-08-14T13:17:50.250Z,19.3
2023-08-14T13:18:56.712Z,19.3
2023-08-14T13:20:03.849Z,19.2
2023-08-14T13:21:10.903Z,19.1
2023-08-14T13:22:18.043Z,19.2
2023-08-14T13:23:24.610Z,19.2
2023-08-14T13:24:32.260Z,19.3
2023-08-14T13:25:42.390Z,19.3
2023-08-14T13:27:54.597Z,19.5
2023-08-14T13:28:59.618Z,19.5
2023-08-14T13:31:13.901Z,19.6
2023-08-14T13:32:21.248Z,19.7
2023-08-14T13:33:28.060Z,19.8
2023-08-14T13:34:34.623Z,19.7
2023-08-14T13:35:41.751Z,19.7
2023-08-14T13:36:48.878Z,19.7
2023-08-14T13:37:55.979Z,19.6
2023-08-14T13:39:03.033Z,19.6
2023-08-14T13:40:09.749Z,19.6
2023-08-14T13:41:16.732Z,19.5
2023-08-14T13:42:23.862Z,19.6
2023-08-14T13:43:30.913Z,19.6
2023-08-14T13:44:38.078Z,19.6
2023-08-14T13:45:45.261Z,19.6
2023-08-14T13:46:51.812Z,19.6
2023-08-14T13:47:59.233Z,19.6
2023-08-14T13:49:05.987Z,19.6
2023-08-14T13:50:19.651Z,19.6
2023-08-14T13:51:19.735Z,19.6
2023-08-14T13:52:29.671Z,19.6
2023-08-14T13:53:33.861Z,19.5
2023-08-14T13:54:40.951Z,19.6
2023-08-14T13:55:48.098Z,19.5
2023-08-14T13:56:55.385Z,19.5
2023-08-14T13:58:01.780Z,19.5
2023-08-14T13:59:08.890Z,19.4
2023-08-14T14:00:15.958Z,19.5
2023-08-14T14:01:23.121Z,19.6
2023-08-14T14:02:29.719Z,19.5
2023-08-14T14:03:36.902Z,19.5
2023-08-14T14:04:43.850Z,19.6
2023-08-14T14:05:50.958Z,19.5
2023-08-14T14:06:58.105Z,19.5
2023-08-14T14:08:04.669Z,19.6
2023-08-14T14:09:11.756Z,19.5
2023-08-14T14:10:18.908Z,19.5
2023-08-14T14:11:25.993Z,19.5
2023-08-14T14:12:33.669Z,19.5
2023-08-14T14:13:39.696Z,19.6
2023-08-14T14:14:46.818Z,19.5
2023-08-14T14:15:53.865Z,19.5
2023-08-14T14:17:00.964Z,19.5
2023-08-14T14:18:08.096Z,19.5
2023-08-14T14:19:14.679Z,19.5
2023-08-14T14:20:21.761Z,19.5
2023-08-14T14:21:29.022Z,19.5
2023-08-14T14:22:35.994Z,19.5
2023-08-14T14:23:42.570Z,19.6
2023-08-14T14:24:49.708Z,19.5
2023-08-14T14:25:56.858Z,19.5
2023-08-14T14:27:03.907Z,19.5
2023-08-14T14:28:10.998Z,19.5
2023-08-14T14:29:17.656Z,19.5
2023-08-14T14:30:24.689Z,19.5
2023-08-14T14:31:31.807Z,19.5
2023-08-14T14:32:39.051Z,19.4
2023-08-14T14:33:46.035Z,19.4
2023-08-14T14:34:52.564Z,19.3
2023-08-14T14:35:59.725Z,19.4
2023-08-14T14:37:06.835Z,19.4
2023-08-14T14:38:13.892Z,19.3
2023-08-14T14:39:21.016Z,19.4
2023-08-14T14:40:28.299Z,19.4
2023-08-14T14:41:34.713Z,19.4
2023-08-14T14:42:41.773Z,19.4
2023-08-14T14:43:50.634Z,19.4
2023-08-14T14:44:56.091Z,19.4
2023-08-14T14:46:02.654Z,19.4
2023-08-14T14:47:09.730Z,19.3
2023-08-14T14:48:16.857Z,19.3
2023-08-14T14:49:23.412Z,19.3
2023-08-14T14:50:31.250Z,19.4
2023-08-14T14:51:37.641Z,19.4
2023-08-14T14:52:45.292Z,19.4
2023-08-14T14:53:51.833Z,19.4
2023-08-14T14:54:58.971Z,19.4
2023-08-14T14:56:06.069Z,19.4
2023-08-14T14:57:12.640Z,19.4
2023-08-14T14:58:19.782Z,19.4
2023-08-14T14:59:26.853Z,19.3
2023-08-14T15:00:33.936Z,19.3
2023-08-14T15:01:41.114Z,19.3
2023-08-14T15:02:47.702Z,19.3
2023-08-14T15:03:54.804Z,19.3
2023-08-14T15:05:05.705Z,19.3
2023-08-14T15:06:08.973Z,19.3
2023-08-14T15:07:16.070Z,19.3
2023-08-14T15:08:22.641Z,19.4
2023-08-14T15:09:29.817Z,19.4
2023-08-14T15:10:36.854Z,19.4
2023-08-14T15:11:43.922Z,19.4
2023-08-14T15:12:51.077Z,19.4
2023-08-14T15:13:57.654Z,19.4
2023-08-14T15:15:04.864Z,19.4
2023-08-14T15:16:11.894Z,19.4
2023-08-14T15:17:19.228Z,19.4
2023-08-14T15:18:25.657Z,19.4
2023-08-14T15:19:32.684Z,19.5
2023-08-14T15:20:40.798Z,19.5
2023-08-14T15:21:46.866Z,19.4
2023-08-14T15:22:53.972Z,19.4
2023-08-14T15:24:00.547Z,19.4
2023-08-14T15:25:07.718Z,19.4
2023-08-14T15:26:14.869Z,19.4
2023-08-14T15:27:21.884Z,19.4
2023-08-14T15:28:29.020Z,19.4
2023-08-14T15:29:35.571Z,19.4
2023-08-14T15:30:42.701Z,19.4
2023-08-14T15:31:49.799Z,19.3
2023-08-14T15:32:56.923Z,19.4
2023-08-14T15:35:10.584Z,19.4
2023-08-14T15:36:17.700Z,19.4
2023-08-14T15:37:24.800Z,19.4
2023-08-14T15:38:31.886Z,19.4
2023-08-14T15:39:39.000Z,19.4
2023-08-14T15:40:45.593Z,19.3
2023-08-14T15:41:52.698Z,19.3
2023-08-14T15:42:59.786Z,19.4
2023-08-14T15:45:14.749Z,34.8